createdAt,value
2022-08-19T00:01:59.537Z,74.30
2022-08-19T00:04:30.770Z,74.50
2022-08-19T00:06:58.226Z,74.55
2022-08-19T00:09:25.930Z,74.94
2022-08-19T00:11:54.306Z,76.60
2022-08-19T00:14:21.753Z,77.20
2022-08-19T00:16:49.921Z,77.41
2022-08-19T00:19:17.395Z,78.31
2022-08-19T00:21:44.230Z,78.62
2022-08-19T00:24:13.684Z,78.46
2022-08-19T00:26:41.070Z,78.49
2022-08-19T00:29:09.116Z,79.86
2022-08-19T00:31:36.594Z,80.47
2022-08-19T00:34:04.019Z,81.35
2022-08-19T00:36:30.729Z,80.98
2022-08-19T00:38:57.469Z,81.22
2022-08-19T00:41:25.891Z,80.32
2022-08-19T00:44:27.069Z,79.90
2022-08-19T00:46:58.417Z,80.11
2022-08-19T00:49:28.276Z,79.14
2022-08-19T00:52:01.371Z,78.57
2022-08-19T00:54:31.245Z,77.96
2022-08-19T00:57:00.526Z,78.15
2022-08-19T01:00:00.448Z,77.89
2022-08-19T01:02:17.569Z,77.68
2022-08-19T01:04:44.097Z,77.74
2022-08-19T01:07:11.213Z,77.57
2022-08-19T01:09:41.742Z,77.61
2022-08-19T01:12:09.035Z,77.75
2022-08-19T01:14:37.838Z,78.38
2022-08-19T01:17:04.964Z,78.51
2022-08-19T01:19:44.319Z,78.96
2022-08-19T01:22:25.250Z,79.64
2022-08-19T01:24:55.594Z,79.27
2022-08-19T01:27:23.405Z,79.87
2022-08-19T01:29:51.367Z,79.74
2022-08-19T01:32:21.166Z,80.22
2022-08-19T01:35:02.863Z,80.09
2022-08-19T01:37:31.349Z,80.25
2022-08-19T01:39:58.379Z,80.89
2022-08-19T01:42:30.307Z,79.91
2022-08-19T01:44:57.831Z,79.62
2022-08-19T01:47:24.426Z,79.89
2022-08-19T01:49:50.932Z,80.03
2022-08-19T01:52:17.598Z,79.47
2022-08-19T01:54:44.638Z,79.05
2022-08-19T01:57:14.706Z,79.03
2022-08-19T01:59:43.166Z,78.98
2022-08-19T02:02:09.825Z,78.95
2022-08-19T02:04:38.936Z,79.43
2022-08-19T02:07:06.941Z,79.68
2022-08-19T02:09:33.676Z,79.20
2022-08-19T02:12:00.519Z,78.89
2022-08-19T02:14:27.273Z,79.00
2022-08-19T02:16:53.841Z,79.42
2022-08-19T02:19:20.344Z,78.65
2022-08-19T02:21:47.513Z,78.67
2022-08-19T02:24:14.034Z,78.55
2022-08-19T02:26:40.784Z,79.03
2022-08-19T02:29:08.579Z,79.47
2022-08-19T02:31:35.217Z,79.80
2022-08-19T02:34:01.766Z,79.99
2022-08-19T02:36:28.748Z,80.31
2022-08-19T02:38:56.936Z,80.19
2022-08-19T02:41:27.938Z,80.98
2022-08-19T02:44:20.401Z,81.42
2022-08-19T02:46:42.711Z,81.09
2022-08-19T02:49:09.530Z,80.76
2022-08-19T02:51:39.614Z,80.52
2022-08-19T02:54:07.785Z,80.24
2022-08-19T02:56:38.690Z,80.36
2022-08-19T02:59:11.864Z,80.55
2022-08-19T03:01:41.520Z,79.89
2022-08-19T03:04:09.932Z,80.04
2022-08-19T03:06:39.479Z,81.03
2022-08-19T03:09:06.276Z,81.92
2022-08-19T03:11:33.737Z,82.63
2022-08-19T03:14:02.370Z,83.91
2022-08-19T03:16:33.553Z,84.34
2022-08-19T03:19:02.158Z,85.32
2022-08-19T03:21:32.150Z,86.39
2022-08-19T03:24:01.346Z,87.42
2022-08-19T03:26:28.730Z,87.13
2022-08-19T03:28:58.304Z,86.82
2022-08-19T03:31:45.252Z,86.75
2022-08-19T03:34:18.500Z,85.46
2022-08-19T03:36:45.713Z,84.80
2022-08-19T03:39:12.321Z,84.85
2022-08-19T03:41:45.306Z,84.00
2022-08-19T03:44:19.222Z,84.53
2022-08-19T03:46:50.555Z,84.59
2022-08-19T03:49:18.736Z,83.75
2022-08-19T03:51:48.257Z,83.35
2022-08-19T03:54:20.861Z,83.15
2022-08-19T03:56:49.927Z,82.71
2022-08-19T03:59:25.998Z,82.72
2022-08-19T04:01:55.104Z,82.49
2022-08-19T04:04:22.539Z,82.39
2022-08-19T04:06:50.197Z,82.91
2022-08-19T04:09:16.809Z,83.16
2022-08-19T04:11:47.521Z,83.42
2022-08-19T04:14:19.936Z,83.71
2022-08-19T04:16:48.514Z,83.94
2022-08-19T04:19:16.770Z,83.77
2022-08-19T04:21:49.439Z,83.81
2022-08-19T04:24:16.018Z,83.29
2022-08-19T04:26:42.745Z,83.28
2022-08-19T04:29:14.998Z,81.99
2022-08-19T04:31:44.291Z,82.03
2022-08-19T04:34:12.477Z,82.28
2022-08-19T04:36:41.460Z,83.77
2022-08-19T04:39:22.939Z,83.81
2022-08-19T04:42:09.536Z,83.82
2022-08-19T04:44:46.101Z,83.73
2022-08-19T04:47:13.288Z,85.49
2022-08-19T04:49:40.024Z,85.53
2022-08-19T04:52:06.605Z,86.65
2022-08-19T04:54:38.735Z,87.62
2022-08-19T04:57:09.395Z,89.05
2022-08-19T04:59:37.426Z,89.88
2022-08-19T05:02:04.972Z,90.57
2022-08-19T05:04:33.080Z,91.46
2022-08-19T05:07:04.102Z,91.20
2022-08-19T05:09:55.453Z,91.74
2022-08-19T05:12:18.510Z,92.38
2022-08-19T05:14:46.508Z,92.47
2022-08-19T05:17:32.123Z,93.76
2022-08-19T05:20:32.496Z,92.46
2022-08-19T05:22:59.014Z,91.43
2022-08-19T05:25:26.660Z,91.48
2022-08-19T05:27:53.266Z,91.14
2022-08-19T05:30:20.357Z,92.04
2022-08-19T05:33:00.765Z,92.13
2022-08-19T05:35:27.346Z,90.81
2022-08-19T05:37:58.989Z,90.24
2022-08-19T05:40:25.774Z,90.05
2022-08-19T05:42:54.883Z,90.09
2022-08-19T05:45:22.780Z,90.25
2022-08-19T05:47:49.330Z,90.28
2022-08-19T05:50:18.673Z,90.15
2022-08-19T05:52:50.068Z,89.52
2022-08-19T05:55:16.888Z,88.80
2022-08-19T05:57:43.452Z,89.48
2022-08-19T06:00:11.825Z,90.13
2022-08-19T06:02:41.761Z,90.99
2022-08-19T06:05:10.162Z,91.05
2022-08-19T06:07:37.735Z,90.34
2022-08-19T06:10:06.959Z,90.76
2022-08-19T06:12:35.407Z,90.88
2022-08-19T06:15:05.740Z,91.65
2022-08-19T06:17:32.679Z,92.18
2022-08-19T06:20:00.126Z,93.12
2022-08-19T06:22:27.252Z,92.64
2022-08-19T06:24:54.911Z,92.10
2022-08-19T06:27:22.744Z,91.79
2022-08-19T06:29:49.633Z,92.04
2022-08-19T06:32:19.212Z,92.57
2022-08-19T06:34:45.885Z,92.83
2022-08-19T06:37:12.966Z,92.25
2022-08-19T06:39:42.295Z,92.24
2022-08-19T06:42:12.350Z,92.33
2022-08-19T06:44:43.319Z,92.52
2022-08-19T06:47:23.707Z,92.04
2022-08-19T06:50:02.804Z,92.63
2022-08-19T06:52:31.520Z,92.36
2022-08-19T06:55:01.652Z,92.28
2022-08-19T06:57:33.617Z,92.03
2022-08-19T07:00:01.023Z,92.04
2022-08-19T07:02:27.676Z,92.00
2022-08-19T07:04:54.345Z,92.56
2022-08-19T07:07:23.121Z,91.28
2022-08-19T07:09:59.248Z,90.65
2022-08-19T07:12:33.857Z,91.23
2022-08-19T07:15:02.188Z,91.29
2022-08-19T07:17:28.924Z,90.29
2022-08-19T07:19:56.191Z,90.29
2022-08-19T07:22:26.017Z,89.74
2022-08-19T07:24:53.510Z,89.67
2022-08-19T07:27:24.292Z,89.76
2022-08-19T07:29:57.213Z,89.70
2022-08-19T07:32:27.657Z,88.42
2022-08-19T07:34:55.164Z,87.69
2022-08-19T07:37:27.346Z,87.64
2022-08-19T07:39:56.396Z,86.74
2022-08-19T07:42:23.283Z,85.96
2022-08-19T07:44:50.917Z,84.41
2022-08-19T07:47:49.072Z,84.21
2022-08-19T07:50:12.031Z,83.87
2022-08-19T07:52:44.407Z,84.43
2022-08-19T07:55:42.583Z,83.68
2022-08-19T07:58:02.358Z,84.68
2022-08-19T08:00:31.555Z,84.61
2022-08-19T08:02:58.169Z,84.81
2022-08-19T08:05:44.399Z,84.54
2022-08-19T08:08:31.051Z,84.37
2022-08-19T08:10:59.127Z,84.35
2022-08-19T08:13:27.373Z,84.68
2022-08-19T08:15:54.746Z,84.13
2022-08-19T08:18:23.141Z,84.97
2022-08-19T08:20:55.782Z,84.62
2022-08-19T08:23:29.538Z,83.97
2022-08-19T08:25:58.110Z,83.92
2022-08-19T08:28:26.347Z,82.90
2022-08-19T08:30:57.599Z,82.37
2022-08-19T08:33:32.741Z,81.64
2022-08-19T08:36:05.219Z,81.50
2022-08-19T08:38:39.151Z,80.26
2022-08-19T08:41:31.113Z,78.04
2022-08-19T08:43:58.514Z,78.13
2022-08-19T08:46:31.550Z,79.07
2022-08-19T08:49:21.462Z,77.79
2022-08-19T08:52:00.415Z,77.03
2022-08-19T08:54:34.834Z,76.06
2022-08-19T08:57:08.155Z,74.91
2022-08-19T08:59:38.515Z,75.63
2022-08-19T09:02:05.207Z,75.30
2022-08-19T09:04:31.856Z,75.17
2022-08-19T09:07:35.697Z,71.70
2022-08-19T09:10:12.675Z,72.01
2022-08-19T09:13:20.689Z,69.86
2022-08-19T09:16:02.436Z,69.73
2022-08-19T09:18:53.556Z,69.63
2022-08-19T09:21:25.735Z,69.95
2022-08-19T09:23:58.671Z,69.50
2022-08-19T09:26:35.311Z,68.97
2022-08-19T09:29:14.098Z,68.43
2022-08-19T09:31:40.993Z,66.12
2022-08-19T09:34:07.545Z,65.98
2022-08-19T09:36:54.548Z,66.27
2022-08-19T09:39:22.165Z,65.85
2022-08-19T09:41:50.641Z,65.14
2022-08-19T09:44:18.240Z,65.23
2022-08-19T09:46:47.920Z,63.94
2022-08-19T09:49:15.415Z,63.84
2022-08-19T09:51:42.093Z,63.07
2022-08-19T09:54:11.393Z,62.89
2022-08-19T09:56:38.109Z,63.78
2022-08-19T09:59:05.126Z,62.48
2022-08-19T10:01:33.090Z,61.91
2022-08-19T10:04:05.321Z,60.80
2022-08-19T10:06:46.860Z,60.83
2022-08-19T10:09:15.180Z,61.70
2022-08-19T10:11:51.194Z,62.16
2022-08-19T10:14:23.230Z,61.81
2022-08-19T10:16:50.314Z,61.61
2022-08-19T10:19:25.492Z,62.02
2022-08-19T10:21:53.808Z,61.22
2022-08-19T10:24:21.561Z,60.85
2022-08-19T10:26:55.937Z,60.83
2022-08-19T10:29:32.516Z,61.03
2022-08-19T10:32:09.681Z,60.63
2022-08-19T10:34:48.440Z,60.38
2022-08-19T10:37:18.054Z,60.31
2022-08-19T10:39:55.438Z,59.74
2022-08-19T10:42:22.484Z,60.04
2022-08-19T10:44:49.076Z,59.36
2022-08-19T10:47:25.940Z,59.05
2022-08-19T10:50:13.054Z,59.61
2022-08-19T10:52:50.159Z,59.70
2022-08-19T10:55:38.781Z,59.41
2022-08-19T10:58:10.643Z,60.46
2022-08-19T11:00:38.168Z,60.10
2022-08-19T11:03:05.044Z,60.28
2022-08-19T11:05:31.680Z,60.00
2022-08-19T11:08:21.221Z,60.17
2022-08-19T11:10:54.392Z,59.54
2022-08-19T11:13:20.935Z,58.33
2022-08-19T11:16:08.147Z,58.28
2022-08-19T11:18:39.879Z,58.77
2022-08-19T11:21:19.817Z,59.16
2022-08-19T11:23:49.199Z,58.75
2022-08-19T11:26:17.102Z,57.97
2022-08-19T11:28:44.222Z,57.37
2022-08-19T11:31:13.107Z,57.39
2022-08-19T11:33:39.926Z,57.08
2022-08-19T11:36:06.800Z,56.11
2022-08-19T11:38:33.518Z,55.50
2022-08-19T11:41:02.226Z,54.25
2022-08-19T11:43:30.353Z,54.21
2022-08-19T11:45:59.338Z,52.84
2022-08-19T11:48:26.384Z,52.11
2022-08-19T11:50:56.291Z,52.60
2022-08-19T11:53:23.226Z,53.38
2022-08-19T11:55:51.585Z,53.76
2022-08-19T11:58:19.091Z,53.61
2022-08-19T12:00:46.154Z,53.53
2022-08-19T12:03:15.929Z,52.81
2022-08-19T12:05:42.605Z,51.01
2022-08-19T12:08:09.700Z,50.79
2022-08-19T12:10:36.614Z,51.36
2022-08-19T12:13:03.669Z,51.47
2022-08-19T12:15:36.917Z,50.58
2022-08-19T12:18:05.256Z,50.85
2022-08-19T12:20:36.260Z,50.35
2022-08-19T12:23:04.837Z,50.50
2022-08-19T12:25:32.632Z,50.61
2022-08-19T12:28:00.075Z,50.20
2022-08-19T12:30:27.010Z,50.17
2022-08-19T12:32:54.371Z,48.90
2022-08-19T12:35:22.068Z,49.43
2022-08-19T12:37:57.083Z,49.99
2022-08-19T12:40:24.279Z,48.62
2022-08-19T12:42:53.670Z,49.40
2022-08-19T12:45:20.283Z,49.50
2022-08-19T12:47:47.890Z,48.47
2022-08-19T12:50:16.678Z,47.95
2022-08-19T12:52:43.341Z,47.64
2022-08-19T12:55:12.406Z,46.98
2022-08-19T12:57:39.231Z,47.06
2022-08-19T13:00:15.331Z,46.76
2022-08-19T13:02:45.923Z,46.17
2022-08-19T13:05:16.694Z,46.59
2022-08-19T13:07:47.017Z,46.17
2022-08-19T13:10:18.921Z,46.34
2022-08-19T13:12:47.992Z,47.28
2022-08-19T13:15:21.720Z,47.03
2022-08-19T13:17:52.065Z,45.94
2022-08-19T13:20:20.883Z,46.75
2022-08-19T13:22:49.249Z,45.84
2022-08-19T13:25:18.390Z,44.61
2022-08-19T13:27:45.246Z,44.09
2022-08-19T13:30:33.280Z,42.95
2022-08-19T13:33:12.144Z,43.87
2022-08-19T13:35:56.004Z,44.78
2022-08-19T13:38:23.026Z,45.71
2022-08-19T13:40:52.417Z,45.98
2022-08-19T13:43:23.786Z,46.31
2022-08-19T13:45:56.799Z,46.76
2022-08-19T13:48:24.541Z,46.45
2022-08-19T13:50:51.106Z,46.02
2022-08-19T13:53:18.743Z,46.60
2022-08-19T13:55:45.566Z,45.37
2022-08-19T13:58:13.014Z,45.98
2022-08-19T14:00:43.687Z,45.57
2022-08-19T14:03:10.971Z,46.22
2022-08-19T14:05:38.149Z,44.80
2022-08-19T14:08:05.080Z,45.11
2022-08-19T14:10:32.454Z,44.10
2022-08-19T14:13:03.219Z,44.22
2022-08-19T14:15:30.585Z,42.70
2022-08-19T14:17:57.424Z,42.79
2022-08-19T14:20:26.278Z,42.83
2022-08-19T14:22:54.102Z,42.83
2022-08-19T14:25:25.553Z,43.43
2022-08-19T14:27:53.271Z,43.13
2022-08-19T14:30:23.196Z,43.25
2022-08-19T14:32:49.729Z,43.02
2022-08-19T14:35:16.979Z,42.77
2022-08-19T14:37:46.405Z,42.70
2022-08-19T14:40:16.573Z,42.44
2022-08-19T14:42:43.453Z,43.23
2022-08-19T14:45:12.510Z,43.16
2022-08-19T15:00:15.718Z,45.24
2022-08-19T15:02:45.160Z,44.70
2022-08-19T15:05:13.534Z,44.91
2022-08-19T15:07:41.236Z,44.89
2022-08-19T15:10:09.122Z,45.39
2022-08-19T15:12:36.758Z,45.30
2022-08-19T15:15:03.655Z,45.70
2022-08-19T15:17:32.439Z,46.09
2022-08-19T15:20:16.040Z,46.77
2022-08-19T15:22:43.175Z,46.93
2022-08-19T15:25:12.100Z,46.75
2022-08-19T15:27:40.540Z,47.85
2022-08-19T15:30:10.069Z,48.11
2022-08-19T15:32:38.092Z,48.59
2022-08-19T15:35:06.764Z,48.87
2022-08-19T15:37:34.473Z,48.63
2022-08-19T15:40:06.518Z,48.85
2022-08-19T15:42:33.902Z,49.58
2022-08-19T15:45:02.003Z,49.86
2022-08-19T15:47:34.967Z,49.46
2022-08-19T15:50:06.761Z,49.63
2022-08-19T15:52:48.326Z,50.28
2022-08-19T15:55:32.198Z,50.67
2022-08-19T15:58:29.722Z,52.06
2022-08-19T16:01:27.385Z,52.15
2022-08-19T16:04:15.846Z,51.70
2022-08-19T16:06:48.846Z,52.34
2022-08-19T16:09:17.502Z,52.74
2022-08-19T16:11:46.373Z,53.07
2022-08-19T16:14:18.537Z,53.71
2022-08-19T16:16:47.184Z,54.09
2022-08-19T16:19:16.350Z,54.28
2022-08-19T16:21:45.225Z,54.93
2022-08-19T16:24:13.699Z,54.99
2022-08-19T16:26:42.171Z,54.76
2022-08-19T16:29:13.047Z,54.84
2022-08-19T16:31:43.244Z,55.10
2022-08-19T16:34:11.263Z,55.32
2022-08-19T16:36:41.649Z,55.10
2022-08-19T16:39:12.898Z,54.11
2022-08-19T16:41:41.144Z,53.85
2022-08-19T16:44:09.946Z,54.60
2022-08-19T16:46:41.509Z,55.12
2022-08-19T16:49:10.678Z,55.34
2022-08-19T16:51:39.096Z,55.33
2022-08-19T16:54:06.159Z,55.78
2022-08-19T16:56:32.799Z,55.85
2022-08-19T16:59:01.893Z,55.60
2022-08-19T17:01:29.352Z,56.18
2022-08-19T17:03:56.716Z,56.17
2022-08-19T17:06:26.391Z,56.37
2022-08-19T17:08:56.076Z,56.17
2022-08-19T17:11:24.360Z,56.55
2022-08-19T17:13:51.366Z,56.38
2022-08-19T17:16:24.409Z,56.62
2022-08-19T17:18:55.756Z,56.86
2022-08-19T17:21:27.410Z,56.92
2022-08-19T17:23:55.510Z,56.65
2022-08-19T17:26:22.898Z,57.31
2022-08-19T17:28:52.076Z,57.41
2022-08-19T17:31:21.170Z,57.68
2022-08-19T17:33:48.474Z,57.94
2022-08-19T17:36:23.554Z,58.69
2022-08-19T17:38:51.238Z,58.86
2022-08-19T17:41:17.808Z,59.13
2022-08-19T17:43:45.089Z,59.53
2022-08-19T17:46:20.268Z,61.36
2022-08-19T17:48:54.619Z,61.82
2022-08-19T17:51:22.291Z,61.13
2022-08-19T17:53:50.797Z,60.75
2022-08-19T17:56:18.131Z,60.59
2022-08-19T17:58:45.097Z,60.86
2022-08-19T18:01:32.021Z,62.26
2022-08-19T18:04:14.622Z,63.09
2022-08-19T18:06:41.750Z,63.86
2022-08-19T18:09:20.741Z,64.58
2022-08-19T18:11:52.772Z,65.65
2022-08-19T18:14:25.056Z,66.13
2022-08-19T18:16:57.709Z,65.80
2022-08-19T18:19:25.505Z,66.43
2022-08-19T18:21:56.738Z,66.93
2022-08-19T18:24:23.501Z,66.78
2022-08-19T18:26:50.057Z,66.61
2022-08-19T18:29:16.732Z,66.94
2022-08-19T18:31:43.647Z,67.24
2022-08-19T18:34:10.920Z,66.73
2022-08-19T18:36:53.442Z,66.75
2022-08-19T18:39:39.258Z,66.58
2022-08-19T18:42:33.226Z,65.89
2022-08-19T18:45:18.651Z,65.96
2022-08-19T18:48:03.775Z,65.79
2022-08-19T18:50:30.408Z,65.47
2022-08-19T18:56:44.994Z,65.39
2022-08-19T18:59:15.006Z,65.90
2022-08-19T19:01:50.515Z,66.09
2022-08-19T19:04:22.473Z,66.26
2022-08-19T19:06:49.369Z,66.23
2022-08-19T19:09:21.756Z,65.90
2022-08-19T19:12:04.393Z,65.48
2022-08-19T19:14:49.116Z,66.00
2022-08-19T19:17:16.856Z,66.34
2022-08-19T19:19:44.487Z,66.45
2022-08-19T19:22:19.369Z,66.61
2022-08-19T19:24:46.047Z,66.03
2022-08-19T19:27:15.492Z,66.25
2022-08-19T19:29:42.638Z,66.06
2022-08-19T19:32:18.626Z,66.00
2022-08-19T19:34:45.330Z,66.22
2022-08-19T19:37:12.002Z,66.57
2022-08-19T19:39:46.391Z,66.82
2022-08-19T19:42:20.730Z,67.17
2022-08-19T19:44:50.389Z,67.26
2022-08-19T19:47:24.529Z,67.26
2022-08-19T19:50:13.249Z,67.45
2022-08-19T19:52:40.947Z,68.15
2022-08-19T19:55:09.638Z,68.75
2022-08-19T19:57:40.066Z,68.80
2022-08-19T20:00:09.023Z,68.80
2022-08-19T20:02:35.614Z,69.82
2022-08-19T20:05:05.047Z,69.81
2022-08-19T20:07:50.344Z,69.97
2022-08-19T20:10:17.143Z,70.42
2022-08-19T20:12:43.749Z,70.97
2022-08-19T20:15:10.634Z,71.03
2022-08-19T20:17:42.615Z,71.80
2022-08-19T20:20:19.297Z,72.35
2022-08-19T20:22:47.470Z,72.92
2022-08-19T20:25:18.902Z,73.38
2022-08-19T20:27:49.264Z,73.80
2022-08-19T20:30:20.856Z,74.19
2022-08-19T20:32:49.057Z,74.19
2022-08-19T20:35:18.267Z,74.05
2022-08-19T20:37:45.112Z,74.57
2022-08-19T20:40:16.313Z,75.32
2022-08-19T20:42:47.021Z,75.51
2022-08-19T20:45:28.077Z,76.55
2022-08-19T20:48:02.362Z,76.69
2022-08-19T20:50:30.179Z,77.20
2022-08-19T20:52:57.787Z,77.90
2022-08-19T20:55:25.822Z,78.05
2022-08-19T20:57:52.452Z,79.02
2022-08-19T21:00:19.337Z,79.42
2022-08-19T21:02:46.883Z,79.94
2022-08-19T21:05:13.832Z,80.39
2022-08-19T21:07:40.804Z,80.76
2022-08-19T21:10:07.872Z,81.45
2022-08-19T21:12:34.830Z,81.86
2022-08-19T21:15:01.530Z,82.50
2022-08-19T21:17:28.229Z,82.28
2022-08-19T21:19:54.821Z,82.55
2022-08-19T21:22:21.385Z,82.49
2022-08-19T21:24:48.283Z,83.04
2022-08-19T21:27:14.899Z,82.22
2022-08-19T21:29:42.157Z,82.58
2022-08-19T21:32:13.988Z,82.49
2022-08-19T21:34:42.792Z,82.61
2022-08-19T21:37:25.075Z,82.51
2022-08-19T21:39:53.115Z,82.49
2022-08-19T21:42:19.930Z,82.31
2022-08-19T21:44:46.477Z,83.79
2022-08-19T21:47:13.477Z,83.76
2022-08-19T21:49:40.067Z,83.42
2022-08-19T21:52:07.267Z,84.19
2022-08-19T21:54:38.281Z,84.40
2022-08-19T21:57:10.656Z,84.42
2022-08-19T21:59:43.611Z,83.62
2022-08-19T22:02:20.275Z,84.50
2022-08-19T22:04:49.537Z,86.11
2022-08-19T22:07:17.090Z,87.57
2022-08-19T22:09:45.681Z,87.16
2022-08-19T22:12:30.590Z,88.03
2022-08-19T22:14:58.589Z,88.94
2022-08-19T22:17:27.361Z,88.71
2022-08-19T22:19:55.974Z,89.53
2022-08-19T22:22:31.189Z,88.39
2022-08-19T22:25:11.754Z,88.04
2022-08-19T22:27:39.776Z,87.35
2022-08-19T22:30:10.281Z,86.68
2022-08-19T22:32:37.345Z,86.94
2022-08-19T22:35:08.238Z,86.48
2022-08-19T22:37:34.941Z,87.20
2022-08-19T22:40:05.488Z,86.77
2022-08-19T22:42:33.000Z,86.59
2022-08-19T22:45:00.287Z,86.87
2022-08-19T22:47:29.467Z,87.48
2022-08-19T22:50:00.598Z,87.86
2022-08-19T22:52:27.766Z,87.82
2022-08-19T22:54:57.012Z,88.16
2022-08-19T22:57:23.812Z,88.69
2022-08-19T22:59:52.636Z,88.92
2022-08-19T23:02:32.754Z,89.36
2022-08-19T23:05:02.477Z,88.80
2022-08-19T23:07:29.541Z,89.74
2022-08-19T23:09:56.167Z,90.14
2022-08-19T23:12:35.204Z,90.38
2022-08-19T23:15:07.989Z,90.82
2022-08-19T23:17:35.247Z,90.45
2022-08-19T23:20:02.416Z,91.12
2022-08-19T23:22:30.485Z,91.24
2022-08-19T23:25:04.816Z,91.47
2022-08-19T23:27:49.790Z,91.61
2022-08-19T23:30:26.019Z,92.04
2022-08-19T23:33:12.314Z,91.37
2022-08-19T23:35:40.974Z,92.04
2022-08-19T23:38:09.385Z,91.93
2022-08-19T23:40:38.426Z,91.36
2022-08-19T23:43:06.307Z,91.85
2022-08-19T23:45:38.758Z,92.37
2022-08-19T23:48:06.887Z,92.52
2022-08-19T23:50:34.253Z,92.81
2022-08-19T23:53:01.814Z,92.69
2022-08-19T23:55:33.155Z,93.03
2022-08-19T23:57:59.873Z,93.24
